sensor_id;sensor_type;location;lat;lon;timestamp;temperature;humidity
9437;DHT22;4757;59.334;18.034;2023-01-10T00:01:20;1.60;99.90
9437;DHT22;4757;59.334;18.034;2023-01-10T00:03:49;1.60;99.90
9437;DHT22;4757;59.334;18.034;2023-01-10T00:06:16;1.60;99.90
9437;DHT22;4757;59.334;18.034;2023-01-10T00:08:44;1.50;99.90
9437;DHT22;4757;59.334;18.034;2023-01-10T00:11:11;1.50;99.90
9437;DHT22;4757;59.334;18.034;2023-01-10T00:13:59;1.50;99.90
9437;DHT22;4757;59.334;18.034;2023-01-10T00:16:26;1.50;99.90
9437;DHT22;4757;59.334;18.034;2023-01-10T00:18:53;1.60;99.90
9437;DHT22;4757;59.334;18.034;2023-01-10T00:21:20;1.50;99.90
9437;DHT22;4757;59.334;18.034;2023-01-10T00:23:47;1.50;99.90
9437;DHT22;4757;59.334;18.034;2023-01-10T00:26:14;1.50;99.90
9437;DHT22;4757;59.334;18.034;2023-01-10T00:28:41;1.50;99.90
9437;DHT22;4757;59.334;18.034;2023-01-10T00:31:09;1.50;99.90
9437;DHT22;4757;59.334;18.034;2023-01-10T00:33:38;1.50;99.90
9437;DHT22;4757;59.334;18.034;2023-01-10T00:36:06;1.50;99.90
9437;DHT22;4757;59.334;18.034;2023-01-10T00:38:34;1.60;99.90
9437;DHT22;4757;59.334;18.034;2023-01-10T00:41:02;1.50;99.90
9437;DHT22;4757;59.334;18.034;2023-01-10T00:44:06;1.50;99.90
9437;DHT22;4757;59.334;18.034;2023-01-10T00:46:34;1.50;99.90
9437;DHT22;4757;59.334;18.034;2023-01-10T00:49:01;1.50;99.90
9437;DHT22;4757;59.334;18.034;2023-01-10T00:51:32;1.50;99.90
9437;DHT22;4757;59.334;18.034;2023-01-10T00:53:59;1.40;99.90
9437;DHT22;4757;59.334;18.034;2023-01-10T00:56:26;1.50;99.90
9437;DHT22;4757;59.334;18.034;2023-01-10T00:58:53;1.50;99.90
9437;DHT22;4757;59.334;18.034;2023-01-10T01:01:20;1.50;99.90
9437;DHT22;4757;59.334;18.034;2023-01-10T01:03:48;1.50;99.90
9437;DHT22;4757;59.334;18.034;2023-01-10T01:06:15;1.50;99.90
9437;DHT22;4757;59.334;18.034;2023-01-10T01:08:42;1.40;99.90
9437;DHT22;4757;59.334;18.034;2023-01-10T01:11:09;1.40;99.90
9437;DHT22;4757;59.334;18.034;2023-01-10T01:13:37;1.40;99.90
9437;DHT22;4757;59.334;18.034;2023-01-10T01:16:04;1.40;99.90
9437;DHT22;4757;59.334;18.034;2023-01-10T01:18:31;1.40;99.90
9437;DHT22;4757;59.334;18.034;2023-01-10T01:20:59;1.40;99.90
9437;DHT22;4757;59.334;18.034;2023-01-10T01:23:29;1.50;99.90
9437;DHT22;4757;59.334;18.034;2023-01-10T01:25:57;1.50;99.90
9437;DHT22;4757;59.334;18.034;2023-01-10T01:28:24;1.50;99.90
9437;DHT22;4757;59.334;18.034;2023-01-10T01:30:51;1.50;99.90
9437;DHT22;4757;59.334;18.034;2023-01-10T01:33:19;1.50;99.90
9437;DHT22;4757;59.334;18.034;2023-01-10T01:35:48;1.50;99.90
9437;DHT22;4757;59.334;18.034;2023-01-10T01:38:16;1.60;99.90
9437;DHT22;4757;59.334;18.034;2023-01-10T01:40:44;1.60;99.90
9437;DHT22;4757;59.334;18.034;2023-01-10T01:43:23;1.60;99.90
9437;DHT22;4757;59.334;18.034;2023-01-10T01:45:51;1.60;99.90
9437;DHT22;4757;59.334;18.034;2023-01-10T01:48:40;1.60;99.90
9437;DHT22;4757;59.334;18.034;2023-01-10T01:51:34;1.60;99.90
9437;DHT22;4757;59.334;18.034;2023-01-10T01:54:04;1.50;99.90
9437;DHT22;4757;59.334;18.034;2023-01-10T01:57:02;1.60;99.90
9437;DHT22;4757;59.334;18.034;2023-01-10T01:59:35;1.60;99.90
9437;DHT22;4757;59.334;18.034;2023-01-10T02:02:15;1.50;99.90
9437;DHT22;4757;59.334;18.034;2023-01-10T02:04:49;1.60;99.90
9437;DHT22;4757;59.334;18.034;2023-01-10T02:07:17;1.60;99.90
9437;DHT22;4757;59.334;18.034;2023-01-10T02:09:50;1.60;99.90
9437;DHT22;4757;59.334;18.034;2023-01-10T02:12:19;1.50;99.90
9437;DHT22;4757;59.334;18.034;2023-01-10T02:14:48;1.60;99.90
9437;DHT22;4757;59.334;18.034;2023-01-10T02:17:16;1.60;99.90
9437;DHT22;4757;59.334;18.034;2023-01-10T02:32:04;1.50;99.90
9437;DHT22;4757;59.334;18.034;2023-01-10T02:38:16;1.60;99.90
9437;DHT22;4757;59.334;18.034;2023-01-10T02:42:08;1.60;99.90
9437;DHT22;4757;59.334;18.034;2023-01-10T02:44:23;1.60;99.90
9437;DHT22;4757;59.334;18.034;2023-01-10T02:46:55;1.60;99.90
9437;DHT22;4757;59.334;18.034;2023-01-10T02:49:22;1.50;99.90
9437;DHT22;4757;59.334;18.034;2023-01-10T02:51:49;1.60;99.90
9437;DHT22;4757;59.334;18.034;2023-01-10T02:54:25;1.70;99.90
9437;DHT22;4757;59.334;18.034;2023-01-10T03:10:36;1.50;99.90
9437;DHT22;4757;59.334;18.034;2023-01-10T03:13:20;1.50;99.90
9437;DHT22;4757;59.334;18.034;2023-01-10T03:15:51;1.50;99.90
9437;DHT22;4757;59.334;18.034;2023-01-10T03:18:34;1.50;99.90
9437;DHT22;4757;59.334;18.034;2023-01-10T03:21:04;1.50;99.90
9437;DHT22;4757;59.334;18.034;2023-01-10T03:23:34;1.40;99.90
9437;DHT22;4757;59.334;18.034;2023-01-10T03:26:02;1.40;99.90
9437;DHT22;4757;59.334;18.034;2023-01-10T03:28:34;1.40;99.90
9437;DHT22;4757;59.334;18.034;2023-01-10T03:31:13;1.30;99.90
9437;DHT22;4757;59.334;18.034;2023-01-10T03:33:41;1.40;99.90
9437;DHT22;4757;59.334;18.034;2023-01-10T03:38:51;1.50;99.90
9437;DHT22;4757;59.334;18.034;2023-01-10T03:44:11;1.40;99.90
9437;DHT22;4757;59.334;18.034;2023-01-10T03:49:33;1.50;99.90
9437;DHT22;4757;59.334;18.034;2023-01-10T03:52:02;1.50;99.90
9437;DHT22;4757;59.334;18.034;2023-01-10T03:54:30;1.50;99.90
9437;DHT22;4757;59.334;18.034;2023-01-10T03:56:58;1.60;99.90
9437;DHT22;4757;59.334;18.034;2023-01-10T03:59:29;1.60;99.90
9437;DHT22;4757;59.334;18.034;2023-01-10T04:01:56;1.60;99.90
9437;DHT22;4757;59.334;18.034;2023-01-10T04:04:23;1.60;99.90
9437;DHT22;4757;59.334;18.034;2023-01-10T04:06:50;1.70;99.90
9437;DHT22;4757;59.334;18.034;2023-01-10T04:09:17;1.70;99.90
9437;DHT22;4757;59.334;18.034;2023-01-10T04:11:44;1.70;99.90
9437;DHT22;4757;59.334;18.034;2023-01-10T04:14:11;1.70;99.90
9437;DHT22;4757;59.334;18.034;2023-01-10T04:16:38;1.70;99.90
9437;DHT22;4757;59.334;18.034;2023-01-10T04:19:05;1.70;99.90
9437;DHT22;4757;59.334;18.034;2023-01-10T04:21:32;1.70;99.90
9437;DHT22;4757;59.334;18.034;2023-01-10T04:24:00;1.80;99.90
9437;DHT22;4757;59.334;18.034;2023-01-10T04:26:27;1.80;99.90
9437;DHT22;4757;59.334;18.034;2023-01-10T04:28:54;1.80;99.90
9437;DHT22;4757;59.334;18.034;2023-01-10T04:31:21;1.80;99.90
9437;DHT22;4757;59.334;18.034;2023-01-10T04:33:49;1.90;99.90
9437;DHT22;4757;59.334;18.034;2023-01-10T04:36:16;1.90;99.90
9437;DHT22;4757;59.334;18.034;2023-01-10T04:38:43;1.90;99.90
9437;DHT22;4757;59.334;18.034;2023-01-10T04:41:10;1.90;99.90
9437;DHT22;4757;59.334;18.034;2023-01-10T04:43:37;1.90;99.90
9437;DHT22;4757;59.334;18.034;2023-01-10T04:46:04;1.90;99.90
9437;DHT22;4757;59.334;18.034;2023-01-10T04:48:31;1.90;99.90
9437;DHT22;4757;59.334;18.034;2023-01-10T04:50:58;1.90;99.90
9437;DHT22;4757;59.334;18.034;2023-01-10T04:53:25;1.90;99.90
9437;DHT22;4757;59.334;18.034;2023-01-10T04:55:52;2.00;99.90
9437;DHT22;4757;59.334;18.034;2023-01-10T04:58:20;2.00;99.90
9437;DHT22;4757;59.334;18.034;2023-01-10T05:00:46;2.00;99.90
9437;DHT22;4757;59.334;18.034;2023-01-10T05:03:14;2.00;99.90
9437;DHT22;4757;59.334;18.034;2023-01-10T05:05:43;2.00;99.90
9437;DHT22;4757;59.334;18.034;2023-01-10T05:08:10;2.10;99.90
9437;DHT22;4757;59.334;18.034;2023-01-10T05:10:37;2.10;99.90
9437;DHT22;4757;59.334;18.034;2023-01-10T05:13:04;2.10;99.90
9437;DHT22;4757;59.334;18.034;2023-01-10T05:15:31;2.10;99.90
9437;DHT22;4757;59.334;18.034;2023-01-10T05:17:59;2.20;99.90
9437;DHT22;4757;59.334;18.034;2023-01-10T05:20:26;2.20;99.90
9437;DHT22;4757;59.334;18.034;2023-01-10T05:22:53;2.20;99.90
9437;DHT22;4757;59.334;18.034;2023-01-10T05:25:20;2.20;99.90
9437;DHT22;4757;59.334;18.034;2023-01-10T05:27:47;2.20;99.90
9437;DHT22;4757;59.334;18.034;2023-01-10T05:30:16;2.30;99.90
9437;DHT22;4757;59.334;18.034;2023-01-10T05:32:43;2.30;99.90
9437;DHT22;4757;59.334;18.034;2023-01-10T05:35:10;2.30;99.90
9437;DHT22;4757;59.334;18.034;2023-01-10T05:37:37;2.30;99.90
9437;DHT22;4757;59.334;18.034;2023-01-10T05:40:05;2.40;99.90
9437;DHT22;4757;59.334;18.034;2023-01-10T05:42:32;2.40;99.90
9437;DHT22;4757;59.334;18.034;2023-01-10T05:44:59;2.40;99.90
9437;DHT22;4757;59.334;18.034;2023-01-10T05:47:26;2.40;99.90
9437;DHT22;4757;59.334;18.034;2023-01-10T05:49:53;2.50;99.90
9437;DHT22;4757;59.334;18.034;2023-01-10T05:52:21;2.50;99.90
9437;DHT22;4757;59.334;18.034;2023-01-10T05:54:48;2.50;99.90
9437;DHT22;4757;59.334;18.034;2023-01-10T05:57:16;2.50;99.90
9437;DHT22;4757;59.334;18.034;2023-01-10T05:59:44;2.60;99.90
9437;DHT22;4757;59.334;18.034;2023-01-10T06:02:12;2.60;99.90
9437;DHT22;4757;59.334;18.034;2023-01-10T06:04:40;2.60;99.90
9437;DHT22;4757;59.334;18.034;2023-01-10T06:07:09;2.60;99.90
9437;DHT22;4757;59.334;18.034;2023-01-10T06:09:36;2.70;99.90
9437;DHT22;4757;59.334;18.034;2023-01-10T06:12:03;2.70;99.90
9437;DHT22;4757;59.334;18.034;2023-01-10T06:14:30;2.70;99.90
9437;DHT22;4757;59.334;18.034;2023-01-10T06:16:58;2.70;99.90
9437;DHT22;4757;59.334;18.034;2023-01-10T06:19:25;2.80;99.90
9437;DHT22;4757;59.334;18.034;2023-01-10T06:21:52;2.80;99.90
9437;DHT22;4757;59.334;18.034;2023-01-10T06:24:19;2.80;99.90
9437;DHT22;4757;59.334;18.034;2023-01-10T06:26:46;2.80;99.90
9437;DHT22;4757;59.334;18.034;2023-01-10T06:29:13;2.80;99.90
9437;DHT22;4757;59.334;18.034;2023-01-10T06:31:40;2.90;99.90
9437;DHT22;4757;59.334;18.034;2023-01-10T06:34:07;2.90;99.90
9437;DHT22;4757;59.334;18.034;2023-01-10T06:36:34;2.90;99.90
9437;DHT22;4757;59.334;18.034;2023-01-10T06:39:01;3.00;99.90
9437;DHT22;4757;59.334;18.034;2023-01-10T06:41:30;3.00;99.90
9437;DHT22;4757;59.334;18.034;2023-01-10T06:43:56;3.00;99.90
9437;DHT22;4757;59.334;18.034;2023-01-10T06:46:23;3.00;99.90
9437;DHT22;4757;59.334;18.034;2023-01-10T06:48:51;3.00;99.90
9437;DHT22;4757;59.334;18.034;2023-01-10T06:51:18;3.00;99.90
9437;DHT22;4757;59.334;18.034;2023-01-10T06:53:46;3.10;99.90
9437;DHT22;4757;59.334;18.034;2023-01-10T06:56:13;3.00;99.90
9437;DHT22;4757;59.334;18.034;2023-01-10T06:58:40;3.00;99.90
9437;DHT22;4757;59.334;18.034;2023-01-10T07:01:15;3.10;99.90
9437;DHT22;4757;59.334;18.034;2023-01-10T07:03:43;3.10;99.90
9437;DHT22;4757;59.334;18.034;2023-01-10T07:06:10;3.20;99.90
9437;DHT22;4757;59.334;18.034;2023-01-10T07:08:38;3.20;99.90
9437;DHT22;4757;59.334;18.034;2023-01-10T07:11:07;3.20;99.90
9437;DHT22;4757;59.334;18.034;2023-01-10T07:13:36;3.30;99.90
9437;DHT22;4757;59.334;18.034;2023-01-10T07:16:11;3.30;99.90
9437;DHT22;4757;59.334;18.034;2023-01-10T07:18:41;3.40;99.90
9437;DHT22;4757;59.334;18.034;2023-01-10T07:21:09;3.30;99.90
9437;DHT22;4757;59.334;18.034;2023-01-10T07:23:37;3.30;99.90
9437;DHT22;4757;59.334;18.034;2023-01-10T07:26:07;3.30;99.90
9437;DHT22;4757;59.334;18.034;2023-01-10T07:28:34;3.30;99.90
9437;DHT22;4757;59.334;18.034;2023-01-10T07:31:04;3.40;99.90
9437;DHT22;4757;59.334;18.034;2023-01-10T07:33:31;3.40;99.90
9437;DHT22;4757;59.334;18.034;2023-01-10T07:35:59;3.40;99.90
9437;DHT22;4757;59.334;18.034;2023-01-10T07:38:28;3.40;99.90
9437;DHT22;4757;59.334;18.034;2023-01-10T07:40:56;3.40;99.90
9437;DHT22;4757;59.334;18.034;2023-01-10T07:43:23;3.40;99.90
9437;DHT22;4757;59.334;18.034;2023-01-10T07:45:50;3.40;99.90
9437;DHT22;4757;59.334;18.034;2023-01-10T07:48:17;3.40;99.90
9437;DHT22;4757;59.334;18.034;2023-01-10T07:50:44;3.40;99.90
9437;DHT22;4757;59.334;18.034;2023-01-10T07:53:12;3.40;99.90
9437;DHT22;4757;59.334;18.034;2023-01-10T07:55:39;3.40;99.90
9437;DHT22;4757;59.334;18.034;2023-01-10T07:58:09;3.40;99.90
9437;DHT22;4757;59.334;18.034;2023-01-10T08:00:37;3.40;99.90
9437;DHT22;4757;59.334;18.034;2023-01-10T08:03:04;3.40;99.90
9437;DHT22;4757;59.334;18.034;2023-01-10T08:05:32;3.40;99.90
9437;DHT22;4757;59.334;18.034;2023-01-10T08:08:07;3.30;99.90
9437;DHT22;4757;59.334;18.034;2023-01-10T08:10:36;3.40;99.90
9437;DHT22;4757;59.334;18.034;2023-01-10T08:13:03;3.40;99.90
9437;DHT22;4757;59.334;18.034;2023-01-10T08:15:44;3.30;99.90
9437;DHT22;4757;59.334;18.034;2023-01-10T08:18:13;3.40;99.90
9437;DHT22;4757;59.334;18.034;2023-01-10T08:20:40;3.40;99.90
9437;DHT22;4757;59.334;18.034;2023-01-10T08:23:07;3.40;99.90
9437;DHT22;4757;59.334;18.034;2023-01-10T08:25:34;3.50;99.90
9437;DHT22;4757;59.334;18.034;2023-01-10T08:28:05;3.40;99.90
9437;DHT22;4757;59.334;18.034;2023-01-10T08:30:32;3.50;99.90
9437;DHT22;4757;59.334;18.034;2023-01-10T08:33:04;3.50;99.90
9437;DHT22;4757;59.334;18.034;2023-01-10T08:35:39;3.50;99.90
9437;DHT22;4757;59.334;18.034;2023-01-10T08:38:09;3.50;99.90
9437;DHT22;4757;59.334;18.034;2023-01-10T08:40:36;3.50;99.90
9437;DHT22;4757;59.334;18.034;2023-01-10T08:43:06;3.50;99.90
9437;DHT22;4757;59.334;18.034;2023-01-10T08:45:35;3.60;99.90
9437;DHT22;4757;59.334;18.034;2023-01-10T08:48:04;3.60;99.90
9437;DHT22;4757;59.334;18.034;2023-01-10T08:50:31;3.60;99.90
9437;DHT22;4757;59.334;18.034;2023-01-10T08:52:59;3.60;99.90
9437;DHT22;4757;59.334;18.034;2023-01-10T08:55:27;3.60;99.90
9437;DHT22;4757;59.334;18.034;2023-01-10T08:57:59;3.70;99.90
9437;DHT22;4757;59.334;18.034;2023-01-10T09:00:27;3.70;99.90
9437;DHT22;4757;59.334;18.034;2023-01-10T09:02:55;3.60;99.90
9437;DHT22;4757;59.334;18.034;2023-01-10T09:05:22;3.70;99.90
9437;DHT22;4757;59.334;18.034;2023-01-10T09:07:58;3.70;99.90
9437;DHT22;4757;59.334;18.034;2023-01-10T09:10:27;3.70;99.90
9437;DHT22;4757;59.334;18.034;2023-01-10T09:12:56;3.70;99.90
9437;DHT22;4757;59.334;18.034;2023-01-10T09:15:30;3.70;99.90
9437;DHT22;4757;59.334;18.034;2023-01-10T09:18:00;3.80;99.90
9437;DHT22;4757;59.334;18.034;2023-01-10T09:20:28;3.80;99.90
9437;DHT22;4757;59.334;18.034;2023-01-10T09:22:56;3.80;99.90
9437;DHT22;4757;59.334;18.034;2023-01-10T09:25:24;3.80;99.90
9437;DHT22;4757;59.334;18.034;2023-01-10T09:27:58;3.80;99.90
9437;DHT22;4757;59.334;18.034;2023-01-10T09:30:27;3.80;99.90
9437;DHT22;4757;59.334;18.034;2023-01-10T09:32:56;3.80;99.90
9437;DHT22;4757;59.334;18.034;2023-01-10T09:35:24;3.80;99.90
9437;DHT22;4757;59.334;18.034;2023-01-10T09:37:56;3.80;99.90
9437;DHT22;4757;59.334;18.034;2023-01-10T09:40:59;3.90;99.90
9437;DHT22;4757;59.334;18.034;2023-01-10T09:44:00;3.90;99.90
9437;DHT22;4757;59.334;18.034;2023-01-10T09:51:45;4.10;99.90
9437;DHT22;4757;59.334;18.034;2023-01-10T09:54:32;4.10;99.90
9437;DHT22;4757;59.334;18.034;2023-01-10T09:57:03;4.00;99.90
9437;DHT22;4757;59.334;18.034;2023-01-10T09:59:40;4.00;99.90
9437;DHT22;4757;59.334;18.034;2023-01-10T10:02:29;4.00;99.90
9437;DHT22;4757;59.334;18.034;2023-01-10T10:07:50;4.00;99.90
9437;DHT22;4757;59.334;18.034;2023-01-10T10:10:25;4.00;99.90
9437;DHT22;4757;59.334;18.034;2023-01-10T10:15:34;4.10;99.90
9437;DHT22;4757;59.334;18.034;2023-01-10T10:20:56;4.20;99.90
9437;DHT22;4757;59.334;18.034;2023-01-10T10:23:53;4.20;99.90
9437;DHT22;4757;59.334;18.034;2023-01-10T10:26:57;4.20;99.90
9437;DHT22;4757;59.334;18.034;2023-01-10T10:29:37;4.20;99.90
9437;DHT22;4757;59.334;18.034;2023-01-10T10:32:20;4.20;99.90
9437;DHT22;4757;59.334;18.034;2023-01-10T10:34:49;4.20;99.90
9437;DHT22;4757;59.334;18.034;2023-01-10T10:37:47;4.20;99.90
9437;DHT22;4757;59.334;18.034;2023-01-10T10:40:20;4.20;99.90
9437;DHT22;4757;59.334;18.034;2023-01-10T10:42:51;4.20;99.90
9437;DHT22;4757;59.334;18.034;2023-01-10T10:48:22;4.20;99.90
9437;DHT22;4757;59.334;18.034;2023-01-10T10:53:27;4.20;99.90
9437;DHT22;4757;59.334;18.034;2023-01-10T10:55:55;4.20;99.90
9437;DHT22;4757;59.334;18.034;2023-01-10T10:58:22;4.30;99.90
9437;DHT22;4757;59.334;18.034;2023-01-10T11:00:51;4.30;99.90
9437;DHT22;4757;59.334;18.034;2023-01-10T11:03:29;4.30;99.90
9437;DHT22;4757;59.334;18.034;2023-01-10T11:05:59;4.20;99.90
9437;DHT22;4757;59.334;18.034;2023-01-10T11:08:29;4.30;99.90
9437;DHT22;4757;59.334;18.034;2023-01-10T11:11:01;4.20;99.90
9437;DHT22;4757;59.334;18.034;2023-01-10T11:16:01;4.20;99.90
9437;DHT22;4757;59.334;18.034;2023-01-10T11:18:29;4.20;99.90
9437;DHT22;4757;59.334;18.034;2023-01-10T11:21:07;4.20;99.90
9437;DHT22;4757;59.334;18.034;2023-01-10T11:23:52;4.20;99.90
9437;DHT22;4757;59.334;18.034;2023-01-10T11:26:35;4.20;99.90
9437;DHT22;4757;59.334;18.034;2023-01-10T11:29:19;4.20;99.90
9437;DHT22;4757;59.334;18.034;2023-01-10T11:31:50;4.20;99.90
9437;DHT22;4757;59.334;18.034;2023-01-10T11:34:21;4.20;99.90
9437;DHT22;4757;59.334;18.034;2023-01-10T11:37:02;4.20;99.90
9437;DHT22;4757;59.334;18.034;2023-01-10T11:39:31;4.20;99.90
9437;DHT22;4757;59.334;18.034;2023-01-10T11:42:26;4.20;99.90
9437;DHT22;4757;59.334;18.034;2023-01-10T11:50:28;4.20;99.90
9437;DHT22;4757;59.334;18.034;2023-01-10T11:52:56;4.20;99.90
9437;DHT22;4757;59.334;18.034;2023-01-10T11:55:29;4.20;99.90
9437;DHT22;4757;59.334;18.034;2023-01-10T11:58:06;4.20;99.90
9437;DHT22;4757;59.334;18.034;2023-01-10T12:00:55;4.20;99.90
9437;DHT22;4757;59.334;18.034;2023-01-10T12:06:08;4.20;99.90
9437;DHT22;4757;59.334;18.034;2023-01-10T12:08:37;4.20;99.90
9437;DHT22;4757;59.334;18.034;2023-01-10T12:11:26;4.30;99.90
9437;DHT22;4757;59.334;18.034;2023-01-10T12:13:57;4.30;99.90
9437;DHT22;4757;59.334;18.034;2023-01-10T12:16:30;4.30;99.90
9437;DHT22;4757;59.334;18.034;2023-01-10T12:19:02;4.30;99.90
9437;DHT22;4757;59.334;18.034;2023-01-10T12:21:40;4.30;99.90
9437;DHT22;4757;59.334;18.034;2023-01-10T12:24:34;4.30;99.90
9437;DHT22;4757;59.334;18.034;2023-01-10T12:27:02;4.30;99.90
9437;DHT22;4757;59.334;18.034;2023-01-10T12:29:40;4.30;99.90
9437;DHT22;4757;59.334;18.034;2023-01-10T12:32:16;4.40;99.90
9437;DHT22;4757;59.334;18.034;2023-01-10T12:34:54;4.30;99.90
9437;DHT22;4757;59.334;18.034;2023-01-10T12:37:41;4.40;99.90
9437;DHT22;4757;59.334;18.034;2023-01-10T12:40:19;4.30;99.90
9437;DHT22;4757;59.334;18.034;2023-01-10T12:42:57;4.30;99.90
9437;DHT22;4757;59.334;18.034;2023-01-10T12:45:51;4.30;99.90
9437;DHT22;4757;59.334;18.034;2023-01-10T12:48:42;4.30;99.90
9437;DHT22;4757;59.334;18.034;2023-01-10T12:51:14;4.40;99.90
9437;DHT22;4757;59.334;18.034;2023-01-10T12:53:49;4.40;99.90
9437;DHT22;4757;59.334;18.034;2023-01-10T12:56:19;4.50;99.90
9437;DHT22;4757;59.334;18.034;2023-01-10T13:01:26;4.50;99.90
9437;DHT22;4757;59.334;18.034;2023-01-10T13:04:03;4.50;99.90
9437;DHT22;4757;59.334;18.034;2023-01-10T13:06:34;4.60;99.90
9437;DHT22;4757;59.334;18.034;2023-01-10T13:09:07;4.60;99.90
9437;DHT22;4757;59.334;18.034;2023-01-10T13:11:44;4.60;99.90
9437;DHT22;4757;59.334;18.034;2023-01-10T13:14:16;4.60;99.90
9437;DHT22;4757;59.334;18.034;2023-01-10T13:16:52;4.60;99.90
9437;DHT22;4757;59.334;18.034;2023-01-10T13:19:26;4.60;99.90
9437;DHT22;4757;59.334;18.034;2023-01-10T13:24:59;4.60;99.90
9437;DHT22;4757;59.334;18.034;2023-01-10T13:27:32;4.60;99.90
9437;DHT22;4757;59.334;18.034;2023-01-10T13:30:02;4.70;99.90
9437;DHT22;4757;59.334;18.034;2023-01-10T13:32:32;4.70;99.90
9437;DHT22;4757;59.334;18.034;2023-01-10T13:35:17;4.70;99.90
9437;DHT22;4757;59.334;18.034;2023-01-10T13:37:51;4.70;99.90
9437;DHT22;4757;59.334;18.034;2023-01-10T13:40:27;4.70;99.90
9437;DHT22;4757;59.334;18.034;2023-01-10T13:51:22;4.70;99.90
9437;DHT22;4757;59.334;18.034;2023-01-10T13:53:59;4.70;99.90
9437;DHT22;4757;59.334;18.034;2023-01-10T13:56:37;4.80;99.90
9437;DHT22;4757;59.334;18.034;2023-01-10T14:02:20;4.80;99.90
9437;DHT22;4757;59.334;18.034;2023-01-10T14:05:14;4.80;99.90
9437;DHT22;4757;59.334;18.034;2023-01-10T14:07:49;4.80;99.90
9437;DHT22;4757;59.334;18.034;2023-01-10T14:10:28;4.80;99.90
9437;DHT22;4757;59.334;18.034;2023-01-10T14:13:03;4.80;99.90
9437;DHT22;4757;59.334;18.034;2023-01-10T14:15:40;4.90;99.90
9437;DHT22;4757;59.334;18.034;2023-01-10T14:18:32;4.90;99.90
9437;DHT22;4757;59.334;18.034;2023-01-10T14:21:02;4.80;99.90
9437;DHT22;4757;59.334;18.034;2023-01-10T14:23:49;4.90;99.90
9437;DHT22;4757;59.334;18.034;2023-01-10T14:26:25;4.80;99.90
9437;DHT22;4757;59.334;18.034;2023-01-10T14:28:54;4.80;99.90
9437;DHT22;4757;59.334;18.034;2023-01-10T14:31:23;5.00;99.90
9437;DHT22;4757;59.334;18.034;2023-01-10T14:33:54;4.90;99.90
9437;DHT22;4757;59.334;18.034;2023-01-10T14:39:14;4.90;99.90
9437;DHT22;4757;59.334;18.034;2023-01-10T14:41:48;4.90;99.90
9437;DHT22;4757;59.334;18.034;2023-01-10T14:44:36;5.00;99.90
9437;DHT22;4757;59.334;18.034;2023-01-10T14:47:30;5.00;99.90
9437;DHT22;4757;59.334;18.034;2023-01-10T14:49:58;4.90;99.90
9437;DHT22;4757;59.334;18.034;2023-01-10T14:52:30;4.90;99.90
9437;DHT22;4757;59.334;18.034;2023-01-10T14:55:10;5.00;99.90
9437;DHT22;4757;59.334;18.034;2023-01-10T14:57:38;5.00;99.90
9437;DHT22;4757;59.334;18.034;2023-01-10T15:00:14;5.00;99.90
9437;DHT22;4757;59.334;18.034;2023-01-10T15:02:49;5.00;99.90
9437;DHT22;4757;59.334;18.034;2023-01-10T15:05:23;5.00;99.90
9437;DHT22;4757;59.334;18.034;2023-01-10T15:08:24;5.00;99.90
9437;DHT22;4757;59.334;18.034;2023-01-10T15:11:02;5.10;99.90
9437;DHT22;4757;59.334;18.034;2023-01-10T15:13:34;5.10;99.90
9437;DHT22;4757;59.334;18.034;2023-01-10T15:16:02;5.10;99.90
9437;DHT22;4757;59.334;18.034;2023-01-10T15:21:03;5.10;99.90
9437;DHT22;4757;59.334;18.034;2023-01-10T15:23:35;5.10;99.90
9437;DHT22;4757;59.334;18.034;2023-01-10T15:26:06;5.10;99.90
9437;DHT22;4757;59.334;18.034;2023-01-10T15:28:35;5.10;99.90
9437;DHT22;4757;59.334;18.034;2023-01-10T15:31:04;5.10;99.90
9437;DHT22;4757;59.334;18.034;2023-01-10T15:33:34;5.20;99.90
9437;DHT22;4757;59.334;18.034;2023-01-10T15:36:14;5.10;99.90
9437;DHT22;4757;59.334;18.034;2023-01-10T15:38:44;5.10;99.90
9437;DHT22;4757;59.334;18.034;2023-01-10T15:41:20;5.20;99.90
9437;DHT22;4757;59.334;18.034;2023-01-10T15:43:49;5.30;99.90
9437;DHT22;4757;59.334;18.034;2023-01-10T15:46:20;5.30;99.90
9437;DHT22;4757;59.334;18.034;2023-01-10T15:49:01;5.30;99.90
9437;DHT22;4757;59.334;18.034;2023-01-10T15:51:37;5.20;99.90
9437;DHT22;4757;59.334;18.034;2023-01-10T15:54:06;5.20;99.90
9437;DHT22;4757;59.334;18.034;2023-01-10T15:56:52;5.10;99.90
9437;DHT22;4757;59.334;18.034;2023-01-10T15:59:22;5.10;99.90
9437;DHT22;4757;59.334;18.034;2023-01-10T16:04:21;5.10;99.90
9437;DHT22;4757;59.334;18.034;2023-01-10T16:06:52;5.10;99.90
9437;DHT22;4757;59.334;18.034;2023-01-10T16:09:21;5.30;99.90
9437;DHT22;4757;59.334;18.034;2023-01-10T16:11:58;5.20;99.90
9437;DHT22;4757;59.334;18.034;2023-01-10T16:14:44;5.20;99.90
9437;DHT22;4757;59.334;18.034;2023-01-10T16:17:11;5.20;99.90
9437;DHT22;4757;59.334;18.034;2023-01-10T16:19:38;5.10;99.90
9437;DHT22;4757;59.334;18.034;2023-01-10T16:22:06;5.10;99.90
9437;DHT22;4757;59.334;18.034;2023-01-10T16:24:34;5.10;99.90
9437;DHT22;4757;59.334;18.034;2023-01-10T16:27:03;5.10;99.90
9437;DHT22;4757;59.334;18.034;2023-01-10T16:29:32;5.10;99.90
9437;DHT22;4757;59.334;18.034;2023-01-10T16:32:00;5.10;99.90
9437;DHT22;4757;59.334;18.034;2023-01-10T16:34:27;5.00;99.90
9437;DHT22;4757;59.334;18.034;2023-01-10T16:36:54;5.00;99.90
9437;DHT22;4757;59.334;18.034;2023-01-10T16:39:22;5.10;99.90
9437;DHT22;4757;59.334;18.034;2023-01-10T16:41:50;5.00;99.90
9437;DHT22;4757;59.334;18.034;2023-01-10T16:44:38;5.00;99.90
9437;DHT22;4757;59.334;18.034;2023-01-10T16:47:07;5.00;99.90
9437;DHT22;4757;59.334;18.034;2023-01-10T16:49:34;5.00;99.90
9437;DHT22;4757;59.334;18.034;2023-01-10T16:52:02;5.00;99.90
9437;DHT22;4757;59.334;18.034;2023-01-10T16:54:29;5.00;99.90
9437;DHT22;4757;59.334;18.034;2023-01-10T16:56:57;5.00;99.90
9437;DHT22;4757;59.334;18.034;2023-01-10T16:59:24;5.00;99.90
9437;DHT22;4757;59.334;18.034;2023-01-10T17:01:56;4.90;99.90
9437;DHT22;4757;59.334;18.034;2023-01-10T17:04:26;4.90;99.90
9437;DHT22;4757;59.334;18.034;2023-01-10T17:06:55;4.90;99.90
9437;DHT22;4757;59.334;18.034;2023-01-10T17:09:26;4.90;99.90
9437;DHT22;4757;59.334;18.034;2023-01-10T17:12:05;4.90;99.90
9437;DHT22;4757;59.334;18.034;2023-01-10T17:14:35;4.90;99.90
9437;DHT22;4757;59.334;18.034;2023-01-10T17:17:03;5.00;99.90
9437;DHT22;4757;59.334;18.034;2023-01-10T17:19:31;4.90;99.90
9437;DHT22;4757;59.334;18.034;2023-01-10T17:21:58;4.90;99.90
9437;DHT22;4757;59.334;18.034;2023-01-10T17:24:26;4.90;99.90
9437;DHT22;4757;59.334;18.034;2023-01-10T17:26:56;4.90;99.90
9437;DHT22;4757;59.334;18.034;2023-01-10T17:29:23;4.90;99.90
9437;DHT22;4757;59.334;18.034;2023-01-10T17:31:50;4.90;99.90
9437;DHT22;4757;59.334;18.034;2023-01-10T17:34:17;5.00;99.90
9437;DHT22;4757;59.334;18.034;2023-01-10T17:36:44;4.90;99.90
9437;DHT22;4757;59.334;18.034;2023-01-10T17:39:12;4.90;99.90
9437;DHT22;4757;59.334;18.034;2023-01-10T17:41:40;4.90;99.90
9437;DHT22;4757;59.334;18.034;2023-01-10T17:44:07;4.90;99.90
9437;DHT22;4757;59.334;18.034;2023-01-10T17:46:34;4.90;99.90
9437;DHT22;4757;59.334;18.034;2023-01-10T17:49:01;5.00;99.90
9437;DHT22;4757;59.334;18.034;2023-01-10T17:51:29;5.00;99.90
9437;DHT22;4757;59.334;18.034;2023-01-10T17:53:56;5.00;99.90
9437;DHT22;4757;59.334;18.034;2023-01-10T17:56:24;5.00;99.90
9437;DHT22;4757;59.334;18.034;2023-01-10T17:58:51;5.10;99.90
9437;DHT22;4757;59.334;18.034;2023-01-10T18:01:21;5.00;99.90
9437;DHT22;4757;59.334;18.034;2023-01-10T18:03:51;5.00;99.90